Ir a foro Ir al Módulo  



logo_vatsim
logo_vatsur

 


Ruta
Julio 16 de 2014

Los invitamos a hacer uso de ésta gran herramienta!



 

 
Untitled Document
SKAR 290400Z 00000KT 9999 SCT030 20/18 A3009
SKBG 290400Z 03004KT 9999 FEW015 SCT100 23/19 A3003 RMK LTNG/S METAR SKCC 290400Z 16018KT 9999 FEW020CB 29/20 A2998 RMK LTNG NW
SKBO 290400Z 08005KT 9999 FEW020 13/02 A3043
SKBQ 290400Z 06012KT CAVOK 28/25 A2985
SKCG 290400Z 36004KT 9999 FEW015 28/25 A2985
SKCL 290400Z 03006KT 9999 FEW030 SCT100 22/18 A2998
SKPE 290400Z 09004KT 9999 TS FEW015CB 21/17 A3013 RMK CB/W/NW
SKRG 290400Z 00000KT 9999 FEW020 15/12 A3038